메인 페이지
METAR-TAF:

METAR-TAF

공항 :

상조제두스캄푸스, 상파울루, 브라질

위도: 23-14S, 경도: 045-52W, 고도: 646m

현재 날씨관측

예보는 24분 전, 09:00시(UTC)에 발표되었습니다.
여러 방향의 바람 1kt
온도 20°C
습도 100%
기압 1016 hPa
시정: 4000m
고도 300ft 상공 구름 보통
고도 1500ft 상공 구름 보통
고도 10000ft 상공 구름 많음
약한이슬비, 박무

METAR: SBSJ 010900Z VRB01KT 4000 -DZ BR SCT003 SCT015 BKN100 20/20 Q1016

시각: 07:24 (09:24 UTC)

예보

예보는 5 시간 39분 전, 03:45시(UTC)에 발표되었습니다.
예보 대상 시간: 01일 06시부터 01일 18시까지 (UTC)
kt
시정: 8000m
전환 중
01일 07시부터 01일 09시까지 (UTC)
시정: 5000m
곳곳에 안개
전환 중
01일 10시부터 01일 12시까지 (UTC)
5kt
시정 10km 이상
고도 2000ft 상공 구름 조금
확률 40%
01일 16시부터 01일 18시까지 (UTC)
북북서10kt
시정: 7000m
고도 2500ft 상공 구름 많음
고도 4000ft 상공 구름 조금, 적란운.
뇌우, 비

TAF: SBSJ 010345Z 0106/0118 00000KT 8000 NSC TN20/0109Z TX27/0117Z BECMG 0107/0109 5000 BCFG BECMG 0110/0112 36005KT 9999 FEW020 PROB40 0116/0118 33010KT 7000 TSRA BKN025 FEW040CB RMK PHG

4,000개 이상의 공항 관측 자료 및 예보 (METAR 및 TAF 보고).

지도상에서 검색 가능한 기상관측소가 노란 점과 빨간 점으로 표시되어 있습니다.

기상관측소 명을 보려면 표시 위로 마우스를 이동하세요.

날씨 관측과 예보를 보려면 클릭하세요.

지도 변경 : 확대하려면 엑스 표시가 있는 녹색 버튼, 축소하려면 빼기 표시가 있는 녹색 버튼, 다음 페이지의 지도를 보려면 녹색 화살표를 클릭하세요.


METAR-TAF: